Terminal Aerodrome Forecast
Issued by NWS Topeka, KS

Home | Current Version | Previous Version | Graphics & Text | Print | Product List | Glossary On
Versions: 1 2 3 4 5 6 7 8 9 10 11 12 13 14 15 16 17 18 19
685
FTUS43 KTOP 220520
TAFTOP
TAF
KTOP 220520Z 2206/2306 19004KT P6SM SCT200
     FM221200 22004KT P6SM BKN120
     FM221500 24010KT P6SM VCTS OVC050CB
     FM230400 22004KT P6SM BKN070=

USA.gov is the U.S. government's official web portal to all federal, state and local government web resources and services.